createdAt,value
2022-09-17T00:02:13.300Z,97667.33
2022-09-17T00:12:41.540Z,97660.41
2022-09-17T00:23:09.931Z,97663.36
2022-09-17T00:33:38.260Z,97669.52
2022-09-17T00:44:42.293Z,97668.48
2022-09-17T00:55:17.929Z,97673.05
2022-09-17T01:05:50.231Z,97676.45
2022-09-17T01:16:25.070Z,97670.12
2022-09-17T01:27:25.501Z,97652.77
2022-09-17T01:38:03.171Z,97658.08
2022-09-17T01:48:34.984Z,97660.73
2022-09-17T01:59:09.355Z,97661.23
2022-09-17T02:09:42.334Z,97652.67
2022-09-17T02:20:11.440Z,97662.31
2022-09-17T02:30:39.765Z,97677.55
2022-09-17T02:41:17.637Z,97690.08
2022-09-17T02:51:55.094Z,97683.98
2022-09-17T03:02:27.593Z,97676.10
2022-09-17T03:12:56.556Z,97666.14
2022-09-17T03:23:24.592Z,97661.98
2022-09-17T03:33:52.521Z,97649.83
2022-09-17T03:44:21.374Z,97641.42
2022-09-17T03:54:49.456Z,97624.04
2022-09-17T04:05:17.492Z,97629.79
2022-09-17T04:15:46.142Z,97629.71
2022-09-17T04:26:14.730Z,97629.55
2022-09-17T04:36:42.680Z,97611.89
2022-09-17T04:47:10.731Z,97611.05
2022-09-17T04:57:38.652Z,97616.58
2022-09-17T05:08:08.484Z,97624.66
2022-09-17T05:18:36.474Z,97644.70
2022-09-17T05:29:03.260Z,97637.11
2022-09-17T05:39:31.234Z,97632.60
2022-09-17T05:49:59.169Z,97638.69
2022-09-17T06:00:27.207Z,97634.02
2022-09-17T06:10:58.970Z,97629.52
2022-09-17T06:21:30.034Z,97607.13
2022-09-17T06:31:56.462Z,97620.35
2022-09-17T06:42:24.659Z,97623.73
2022-09-17T06:52:54.502Z,97630.17
2022-09-17T07:03:23.404Z,97633.98
2022-09-17T07:13:51.517Z,97633.67
2022-09-17T07:24:19.540Z,97651.02
2022-09-17T07:34:47.528Z,97664.40
2022-09-17T07:45:15.650Z,97677.48
2022-09-17T07:55:43.889Z,97674.17
2022-09-17T08:06:14.051Z,97661.91
2022-09-17T08:16:47.305Z,97661.32
2022-09-17T08:27:15.228Z,97653.64
2022-09-17T08:37:41.692Z,97662.46
2022-09-17T08:48:15.751Z,97664.05
2022-09-17T08:59:04.594Z,97623.09
2022-09-17T09:09:37.033Z,97622.30
2022-09-17T09:20:05.664Z,97647.16
2022-09-17T09:30:47.996Z,97662.40
2022-09-17T09:41:20.579Z,97664.73
2022-09-17T09:51:56.458Z,97673.70
2022-09-17T10:02:25.990Z,97676.17
2022-09-17T10:13:08.719Z,97669.05
2022-09-17T10:23:39.873Z,97678.30
2022-09-17T10:34:19.918Z,97692.55
2022-09-17T10:44:56.030Z,97676.20
2022-09-17T10:55:33.605Z,97698.27
2022-09-17T11:06:23.586Z,97688.00
2022-09-17T11:17:00.317Z,97683.70
2022-09-17T11:28:07.855Z,97699.60
2022-09-17T11:38:44.746Z,97694.34
2022-09-17T11:49:19.319Z,97691.92
2022-09-17T11:59:55.500Z,97688.20
2022-09-17T12:10:37.130Z,97677.54
2022-09-17T12:21:10.832Z,97667.08
2022-09-17T12:31:47.624Z,97647.73
2022-09-17T12:42:25.973Z,97634.88
2022-09-17T12:53:09.272Z,97620.43
2022-09-17T13:03:42.011Z,97622.31
2022-09-17T13:14:22.041Z,97608.86
2022-09-17T13:25:05.254Z,97596.58
2022-09-17T13:35:53.072Z,97613.66
2022-09-17T13:46:25.138Z,97631.75
2022-09-17T13:57:08.675Z,97616.88
2022-09-17T14:07:49.127Z,97568.27
2022-09-17T14:18:43.610Z,97541.70
2022-09-17T14:29:20.586Z,97566.63
2022-09-17T14:39:53.340Z,97603.64
2022-09-17T14:50:26.745Z,97592.27
2022-09-17T15:00:55.867Z,97579.65
2022-09-17T15:11:24.021Z,97560.65
2022-09-17T15:21:55.253Z,97563.13
2022-09-17T15:32:23.509Z,97575.01
2022-09-17T15:42:57.263Z,97591.03
2022-09-17T15:53:27.918Z,97580.47
2022-09-17T16:04:21.090Z,97576.16
2022-09-17T16:14:54.349Z,97581.79
2022-09-17T16:25:25.285Z,97594.52
2022-09-17T16:35:53.332Z,97588.10
2022-09-17T16:46:19.894Z,97590.67
2022-09-17T16:56:48.511Z,97586.47
2022-09-17T17:07:16.567Z,97586.61
2022-09-17T17:17:44.580Z,97581.34
2022-09-17T17:28:15.049Z,97573.35
2022-09-17T17:38:43.133Z,97564.42
2022-09-17T17:49:11.105Z,97568.99
2022-09-17T17:59:39.106Z,97569.64
2022-09-17T18:10:08.905Z,97576.73
2022-09-17T18:20:36.849Z,97581.17
2022-09-17T18:31:07.580Z,97593.63
2022-09-17T18:41:37.738Z,97593.77
2022-09-17T18:52:05.995Z,97583.89
2022-09-17T19:02:35.612Z,97585.68
2022-09-17T19:13:03.966Z,97594.95
2022-09-17T19:23:32.853Z,97601.14
2022-09-17T19:34:01.783Z,97607.61
2022-09-17T19:44:30.817Z,97607.93
2022-09-17T19:54:58.963Z,97600.67
2022-09-17T20:05:28.119Z,97600.19
2022-09-17T20:15:56.351Z,97597.48
2022-09-17T20:26:24.580Z,97600.13
2022-09-17T20:37:06.506Z,97610.47
2022-09-17T20:47:39.480Z,97609.30
2022-09-17T20:58:09.900Z,97604.81
2022-09-17T21:08:37.814Z,97592.94
2022-09-17T21:19:09.737Z,97591.63
2022-09-17T21:29:37.669Z,97589.95
2022-09-17T21:40:07.790Z,97590.17
2022-09-17T21:50:35.752Z,97589.73
2022-09-17T22:01:09.261Z,97588.74
2022-09-17T22:11:38.792Z,97597.46
2022-09-17T22:22:06.789Z,97603.58
2022-09-17T22:32:34.671Z,97606.98
2022-09-17T22:43:02.516Z,97594.97
2022-09-17T22:53:30.390Z,97587.30
2022-09-17T23:03:59.335Z,97584.33
2022-09-17T23:14:27.331Z,97582.48
2022-09-17T23:24:55.146Z,97584.96
2022-09-17T23:35:23.233Z,97584.00
2022-09-17T23:45:56.775Z,97585.17
2022-09-17T23:56:27.930Z,97587.26
